createdAt,value
2019-04-20T00:04:34.248Z,67.30
2019-04-20T00:07:04.200Z,67.00
2019-04-20T00:09:38.376Z,67.20
2019-04-20T00:12:15.718Z,67.40
2019-04-20T00:14:40.544Z,68.00
2019-04-20T00:17:11.619Z,67.30
2019-04-20T00:19:46.209Z,66.80
2019-04-20T00:22:16.891Z,66.60
2019-04-20T00:24:55.684Z,66.30
2019-04-20T00:27:42.785Z,66.60
2019-04-20T00:30:09.820Z,66.30
2019-04-20T00:32:43.399Z,65.80
2019-04-20T00:34:57.988Z,65.40
2019-04-20T00:37:29.701Z,64.90
2019-04-20T00:40:01.561Z,65.20
2019-04-20T00:42:39.162Z,65.00
2019-04-20T00:45:12.828Z,64.70
2019-04-20T00:47:47.754Z,64.50
2019-04-20T00:50:28.362Z,64.10
2019-04-20T00:52:55.785Z,64.20
2019-04-20T00:55:15.011Z,64.00
2019-04-20T00:57:51.870Z,63.80
2019-04-20T01:00:37.190Z,63.80
2019-04-20T01:03:07.932Z,63.80
2019-04-20T01:05:46.709Z,63.70
2019-04-20T01:08:00.569Z,63.40
2019-04-20T01:10:37.080Z,63.10
2019-04-20T01:13:11.490Z,62.80
2019-04-20T01:15:42.909Z,62.80
2019-04-20T01:18:10.641Z,62.40
2019-04-20T01:20:41.021Z,62.20
2019-04-20T01:23:15.758Z,61.90
2019-04-20T01:25:46.895Z,61.70
2019-04-20T01:28:35.469Z,61.50
2019-04-20T01:31:00.200Z,61.00
2019-04-20T01:33:31.755Z,60.70
2019-04-20T01:36:09.059Z,60.50
2019-04-20T01:38:40.131Z,60.10
2019-04-20T01:40:57.131Z,59.80
2019-04-20T01:43:29.058Z,59.60
2019-04-20T01:46:07.597Z,59.50
2019-04-20T01:48:35.129Z,59.60
2019-04-20T01:51:11.782Z,58.50
2019-04-20T01:53:55.704Z,58.40
2019-04-20T01:56:24.310Z,57.90
2019-04-20T01:59:02.333Z,57.70
2019-04-20T02:01:22.265Z,57.80
2019-04-20T02:03:52.078Z,57.70
2019-04-20T02:06:24.961Z,57.40
2019-04-20T02:09:01.522Z,57.00
2019-04-20T02:11:32.761Z,57.00
2019-04-20T02:14:02.408Z,56.60
2019-04-20T02:16:38.779Z,55.50
2019-04-20T02:19:22.106Z,55.30
2019-04-20T02:21:51.714Z,55.70
2019-04-20T02:24:09.624Z,55.90
2019-04-20T02:26:40.878Z,55.80
2019-04-20T02:29:34.852Z,55.70
2019-04-20T02:34:57.746Z,55.00
2019-04-20T02:37:28.803Z,55.20
2019-04-20T02:40:07.118Z,55.10
2019-04-20T02:42:42.803Z,54.90
2019-04-20T02:45:08.966Z,54.30
2019-04-20T02:47:43.690Z,54.30
2019-04-20T02:52:38.545Z,53.90
2019-04-20T02:55:09.237Z,54.00
2019-04-20T02:57:55.289Z,53.50
2019-04-20T03:00:25.416Z,53.70
2019-04-20T03:02:38.597Z,52.50
2019-04-20T03:05:09.745Z,52.60
2019-04-20T03:07:50.354Z,52.60
2019-04-20T03:10:25.094Z,53.00
2019-04-20T03:12:56.680Z,53.10
2019-04-20T03:15:36.396Z,51.60
2019-04-20T03:18:07.588Z,52.00
2019-04-20T03:20:36.606Z,51.50
2019-04-20T03:23:26.843Z,51.50
2019-04-20T03:25:43.124Z,51.30
2019-04-20T03:28:14.110Z,51.40
2019-04-20T03:33:35.087Z,50.30
2019-04-20T03:36:00.375Z,50.60
2019-04-20T03:38:20.095Z,50.30
2019-04-20T03:40:46.692Z,49.80
2019-04-20T03:43:07.639Z,49.60
2019-04-20T03:45:48.414Z,49.50
2019-04-20T03:48:33.526Z,49.80
2019-04-20T03:51:10.176Z,48.60
2019-04-20T03:53:39.505Z,48.70
2019-04-20T03:56:19.738Z,49.00
2019-04-20T03:58:46.029Z,49.20
2019-04-20T04:01:33.271Z,48.40
2019-04-20T04:03:59.320Z,48.20
2019-04-20T04:06:21.484Z,48.60
2019-04-20T04:08:56.035Z,48.80
2019-04-20T04:11:31.455Z,47.20
2019-04-20T04:13:45.909Z,45.40
2019-04-20T04:16:20.212Z,45.10
2019-04-20T04:18:59.287Z,46.20
2019-04-20T04:21:37.124Z,47.50
2019-04-20T04:24:07.228Z,46.20
2019-04-20T04:26:39.076Z,45.40
2019-04-20T04:29:22.581Z,45.30
2019-04-20T04:31:57.727Z,45.40
2019-04-20T04:34:22.894Z,45.20
2019-04-20T04:36:56.186Z,45.60
2019-04-20T04:39:30.948Z,43.20
2019-04-20T04:42:12.792Z,43.50
2019-04-20T04:44:26.408Z,43.70
2019-04-20T04:46:53.397Z,43.00
2019-04-20T04:49:25.855Z,40.90
2019-04-20T04:51:58.570Z,41.20
2019-04-20T04:54:28.865Z,41.80
2019-04-20T04:56:54.594Z,43.00
2019-04-20T04:59:25.722Z,42.60
2019-04-20T05:01:58.133Z,41.50
2019-04-20T05:04:54.917Z,39.20
2019-04-20T05:07:17.000Z,40.10
2019-04-20T05:09:34.350Z,39.80
2019-04-20T05:12:11.777Z,39.90
2019-04-20T05:14:46.068Z,39.20
2019-04-20T05:17:30.844Z,40.40
2019-04-20T05:20:03.636Z,38.70
2019-04-20T05:22:36.850Z,38.30
2019-04-20T05:25:10.836Z,38.40
2019-04-20T05:27:47.944Z,38.40
2019-04-20T05:29:57.508Z,38.10
2019-04-20T05:32:39.634Z,38.30
2019-04-20T05:35:23.752Z,37.10
2019-04-20T05:38:05.154Z,37.00
2019-04-20T05:40:26.222Z,36.40
2019-04-20T05:42:59.459Z,38.20
2019-04-20T05:45:28.629Z,38.40
2019-04-20T05:48:04.561Z,37.00
2019-04-20T05:50:36.278Z,36.20
2019-04-20T05:53:14.420Z,34.50
2019-04-20T05:55:43.135Z,35.60
2019-04-20T05:58:17.950Z,35.50
2019-04-20T06:00:57.509Z,36.40
2019-04-20T06:03:23.246Z,36.60
2019-04-20T06:05:59.245Z,36.50
2019-04-20T06:08:43.597Z,35.90
2019-04-20T06:11:03.848Z,36.90
2019-04-20T06:13:22.889Z,36.80
2019-04-20T06:16:03.956Z,36.60
2019-04-20T06:18:33.631Z,35.90
2019-04-20T06:21:21.292Z,36.40
2019-04-20T06:23:54.889Z,37.00
2019-04-20T06:28:42.959Z,37.40
2019-04-20T06:31:26.727Z,36.90
2019-04-20T06:34:08.793Z,36.40
2019-04-20T06:36:33.888Z,35.40
2019-04-20T06:41:54.207Z,34.90
2019-04-20T06:44:08.194Z,35.70
2019-04-20T06:46:48.715Z,35.00
2019-04-20T06:49:16.984Z,34.50
2019-04-20T06:51:47.642Z,34.70
2019-04-20T06:54:12.432Z,34.30
2019-04-20T06:56:55.739Z,34.00
2019-04-20T06:59:31.828Z,34.70
2019-04-20T07:07:11.341Z,34.30
2019-04-20T07:09:46.440Z,34.30
2019-04-20T07:12:09.348Z,34.30
2019-04-20T07:14:32.870Z,34.00
2019-04-20T07:17:29.756Z,34.90
2019-04-20T07:19:48.711Z,35.00
2019-04-20T07:22:31.523Z,35.10
2019-04-20T07:25:06.387Z,36.50
2019-04-20T07:27:32.050Z,35.90
2019-04-20T07:29:56.525Z,35.90
2019-04-20T07:32:38.931Z,35.50
2019-04-20T07:35:03.553Z,35.40
2019-04-20T07:40:12.993Z,35.50
2019-04-20T07:42:40.797Z,34.60
2019-04-20T07:45:18.119Z,33.00
2019-04-20T07:47:46.489Z,34.20
2019-04-20T07:50:12.895Z,34.30
2019-04-20T07:52:38.705Z,33.30
2019-04-20T07:57:47.135Z,33.70
2019-04-20T08:00:35.588Z,34.50
2019-04-20T08:03:03.403Z,35.00
2019-04-20T08:05:31.117Z,34.40
2019-04-20T08:07:57.226Z,33.50
2019-04-20T08:10:33.999Z,31.70
2019-04-20T08:13:21.126Z,32.00
2019-04-20T08:16:04.620Z,33.20
2019-04-20T08:18:21.588Z,31.20
2019-04-20T08:20:52.676Z,31.30
2019-04-20T08:23:27.232Z,32.40
2019-04-20T08:25:43.319Z,32.00
2019-04-20T08:28:15.489Z,32.10
2019-04-20T08:30:57.261Z,32.60
2019-04-20T08:33:37.433Z,30.70
2019-04-20T08:36:12.243Z,31.60
2019-04-20T08:41:12.025Z,31.30
2019-04-20T08:43:53.864Z,29.80
2019-04-20T08:46:22.707Z,28.50
2019-04-20T08:48:51.018Z,27.90
2019-04-20T08:51:26.052Z,29.10
2019-04-20T08:53:57.012Z,28.80
2019-04-20T08:56:21.930Z,30.00
2019-04-20T08:58:41.459Z,30.90
2019-04-20T09:01:20.220Z,30.00
2019-04-20T09:03:56.462Z,28.90
2019-04-20T09:06:33.676Z,31.30
2019-04-20T09:09:07.823Z,30.00
2019-04-20T09:11:44.128Z,30.30
2019-04-20T09:14:00.073Z,29.30
2019-04-20T09:16:38.160Z,29.60
2019-04-20T09:19:05.945Z,30.10
2019-04-20T09:21:38.971Z,29.60
2019-04-20T09:24:30.536Z,28.70
2019-04-20T09:26:54.569Z,28.70
2019-04-20T09:29:23.821Z,29.20
2019-04-20T09:31:51.899Z,27.90
2019-04-20T09:34:37.105Z,27.20
2019-04-20T09:37:09.603Z,26.90
2019-04-20T09:39:30.701Z,27.70
2019-04-20T09:42:01.431Z,27.50
2019-04-20T09:44:34.489Z,27.40
2019-04-20T09:47:03.370Z,27.70
2019-04-20T09:49:46.071Z,28.40
2019-04-20T09:52:16.963Z,28.20
2019-04-20T09:54:55.120Z,28.60
2019-04-20T09:57:29.616Z,29.00
2019-04-20T10:00:04.362Z,29.20
2019-04-20T10:02:22.039Z,29.40
2019-04-20T10:04:47.428Z,30.00
2019-04-20T10:07:22.249Z,29.50
2019-04-20T10:09:51.935Z,29.60
2019-04-20T10:12:24.105Z,29.90
2019-04-20T10:14:57.553Z,29.90
2019-04-20T10:17:30.490Z,30.20
2019-04-20T10:20:02.562Z,30.50
2019-04-20T10:22:33.091Z,30.40
2019-04-20T10:25:04.590Z,30.60
2019-04-20T10:27:36.681Z,31.00
2019-04-20T10:30:08.283Z,31.20
2019-04-20T10:32:43.004Z,31.30
2019-04-20T10:35:16.566Z,31.60
2019-04-20T10:37:47.366Z,31.60
2019-04-20T10:40:34.333Z,31.70
2019-04-20T10:42:50.325Z,32.30
2019-04-20T10:45:21.258Z,32.00
2019-04-20T10:47:52.786Z,32.30
2019-04-20T10:50:25.094Z,32.20
2019-04-20T10:52:56.194Z,32.40
2019-04-20T10:55:27.238Z,32.70
2019-04-20T10:57:59.644Z,32.80
2019-04-20T11:00:33.417Z,32.90
2019-04-20T11:03:05.829Z,33.10
2019-04-20T11:05:38.301Z,33.30
2019-04-20T11:08:10.536Z,33.70
2019-04-20T11:10:55.439Z,33.90
2019-04-20T11:13:15.685Z,34.00
2019-04-20T11:15:46.393Z,34.20
2019-04-20T11:18:17.708Z,34.50
2019-04-20T11:20:51.168Z,34.60
2019-04-20T11:23:22.428Z,34.60
2019-04-20T11:25:53.168Z,34.70
2019-04-20T11:28:24.096Z,34.80
2019-04-20T11:30:56.228Z,35.00
2019-04-20T11:33:27.829Z,35.20
2019-04-20T11:35:59.123Z,35.00
2019-04-20T11:38:30.243Z,35.00
2019-04-20T11:41:10.351Z,35.30
2019-04-20T11:43:33.626Z,35.70
2019-04-20T11:46:04.810Z,36.00
2019-04-20T11:48:35.590Z,36.30
2019-04-20T11:51:07.447Z,36.50
2019-04-20T11:53:38.563Z,36.60
2019-04-20T11:56:14.420Z,36.60
2019-04-20T11:58:42.732Z,36.90
2019-04-20T12:01:18.748Z,37.00
2019-04-20T12:03:58.418Z,37.30
2019-04-20T12:06:19.393Z,37.60
2019-04-20T12:08:50.187Z,37.90
2019-04-20T12:11:31.956Z,37.70
2019-04-20T12:13:54.401Z,37.90
2019-04-20T12:16:25.710Z,38.20
2019-04-20T12:18:56.786Z,38.20
2019-04-20T12:21:28.659Z,39.30
2019-04-20T12:24:00.380Z,38.80
2019-04-20T12:26:31.355Z,39.00
2019-04-20T12:29:02.018Z,39.50
2019-04-20T12:31:33.543Z,40.10
2019-04-20T12:34:04.474Z,40.50
2019-04-20T12:36:35.492Z,40.40
2019-04-20T12:39:08.917Z,40.40
2019-04-20T12:41:48.009Z,40.50
2019-04-20T12:44:14.083Z,40.60
2019-04-20T12:46:45.819Z,40.80
2019-04-20T12:49:17.869Z,40.60
2019-04-20T12:51:54.678Z,40.60
2019-04-20T12:54:22.681Z,40.70
2019-04-20T12:56:53.402Z,40.70
2019-04-20T12:59:25.462Z,40.60
2019-04-20T13:01:57.488Z,40.70
2019-04-20T13:04:28.463Z,40.70
2019-04-20T13:07:01.652Z,40.90
2019-04-20T13:09:34.946Z,40.80
2019-04-20T13:12:10.739Z,41.40
2019-04-20T13:14:44.297Z,41.60
2019-04-20T13:17:16.536Z,42.60
2019-04-20T13:19:47.280Z,42.10
2019-04-20T13:22:19.028Z,42.00
2019-04-20T13:24:50.175Z,42.40
2019-04-20T13:27:21.107Z,42.40
2019-04-20T13:29:53.001Z,42.70
2019-04-20T13:32:25.571Z,43.00
2019-04-20T13:34:57.957Z,43.30
2019-04-20T13:37:29.272Z,44.10
2019-04-20T13:40:00.768Z,44.40
2019-04-20T13:42:33.499Z,44.20
2019-04-20T13:45:04.830Z,44.20
2019-04-20T13:47:37.007Z,44.50
2019-04-20T13:50:13.119Z,44.40
2019-04-20T13:52:44.666Z,44.10
2019-04-20T13:55:15.708Z,44.00
2019-04-20T13:57:49.531Z,43.70
2019-04-20T14:00:24.158Z,43.60
2019-04-20T14:02:56.444Z,43.50
2019-04-20T14:05:28.601Z,43.80
2019-04-20T14:08:03.114Z,43.90
2019-04-20T14:10:35.424Z,43.90
2019-04-20T14:13:12.146Z,43.90
2019-04-20T14:15:38.814Z,44.10
2019-04-20T14:18:11.049Z,44.10
2019-04-20T14:20:42.426Z,44.10
2019-04-20T14:23:13.104Z,44.20
2019-04-20T14:25:45.030Z,44.20
2019-04-20T14:28:15.954Z,45.10
2019-04-20T14:30:47.746Z,44.60
2019-04-20T14:33:19.345Z,44.60
2019-04-20T14:35:50.637Z,44.60
2019-04-20T14:38:22.244Z,44.80
2019-04-20T14:40:54.464Z,45.60
2019-04-20T14:43:26.779Z,45.10
2019-04-20T14:45:58.742Z,44.90
2019-04-20T14:48:30.967Z,44.90
2019-04-20T14:51:02.014Z,44.60
2019-04-20T14:53:33.616Z,44.30
2019-04-20T14:56:05.349Z,44.20
2019-04-20T14:58:39.704Z,44.60
2019-04-20T15:01:12.331Z,44.60
2019-04-20T15:03:43.903Z,44.40
2019-04-20T15:06:15.774Z,44.60
2019-04-20T15:08:46.711Z,44.50
2019-04-20T15:11:18.746Z,44.50
2019-04-20T15:13:50.812Z,44.50
2019-04-20T15:16:22.500Z,44.40
2019-04-20T15:18:56.346Z,44.70
2019-04-20T15:21:29.352Z,44.60
2019-04-20T15:24:01.620Z,44.70
2019-04-20T15:26:34.303Z,44.90
2019-04-20T15:29:06.253Z,45.40
2019-04-20T15:31:38.311Z,45.10
2019-04-20T15:34:09.239Z,45.50
2019-04-20T15:36:40.243Z,45.10
2019-04-20T15:39:11.429Z,45.10
2019-04-20T15:41:43.148Z,45.50
2019-04-20T15:44:15.270Z,45.50
2019-04-20T15:46:46.123Z,45.30
2019-04-20T15:49:17.944Z,45.50
2019-04-20T15:51:49.976Z,45.40
2019-04-20T15:54:20.888Z,45.70
2019-04-20T15:56:57.000Z,45.90
2019-04-20T15:59:24.373Z,45.90
2019-04-20T16:01:57.597Z,46.20
2019-04-20T16:04:34.333Z,46.20
2019-04-20T16:07:03.284Z,47.40
2019-04-20T16:09:34.255Z,46.60
2019-04-20T16:12:05.046Z,47.50
2019-04-20T16:14:35.851Z,47.90
2019-04-20T16:17:08.432Z,47.90
2019-04-20T16:19:49.164Z,47.30
2019-04-20T16:22:12.147Z,48.00
2019-04-20T16:24:44.923Z,48.10
2019-04-20T16:27:17.935Z,47.20
2019-04-20T16:29:49.504Z,47.00
2019-04-20T16:32:20.590Z,47.00
2019-04-20T16:34:52.482Z,46.90
2019-04-20T16:37:24.463Z,47.40
2019-04-20T16:39:56.545Z,47.30
2019-04-20T16:42:27.374Z,47.10
2019-04-20T16:44:59.157Z,47.30
2019-04-20T16:47:30.170Z,47.80
2019-04-20T16:50:01.178Z,47.20
2019-04-20T16:52:34.856Z,47.20
2019-04-20T16:55:08.503Z,47.00
2019-04-20T16:57:39.743Z,47.00
2019-04-20T17:00:11.542Z,47.30
2019-04-20T17:02:44.869Z,47.30
2019-04-20T17:05:16.750Z,47.50
2019-04-20T17:07:48.973Z,47.30
2019-04-20T17:10:22.356Z,47.30
2019-04-20T17:12:53.689Z,47.60
2019-04-20T17:15:25.572Z,47.50
2019-04-20T17:17:58.569Z,47.30
2019-04-20T17:20:28.920Z,47.60
2019-04-20T17:23:00.373Z,47.90
2019-04-20T17:25:32.285Z,47.60
2019-04-20T17:28:04.704Z,47.50
2019-04-20T17:30:37.830Z,47.70
2019-04-20T17:33:10.363Z,48.40
2019-04-20T17:35:53.158Z,48.20
2019-04-20T17:38:14.332Z,48.10
2019-04-20T17:40:59.873Z,48.30
2019-04-20T17:43:25.385Z,48.10
2019-04-20T17:45:57.838Z,48.10
2019-04-20T17:48:34.909Z,48.70
2019-04-20T17:51:17.845Z,49.20
2019-04-20T17:53:37.693Z,48.70
2019-04-20T17:56:02.315Z,48.70
2019-04-20T17:58:35.022Z,48.90
2019-04-20T18:01:20.463Z,48.30
2019-04-20T18:04:11.070Z,48.70
2019-04-20T18:06:25.412Z,49.00
2019-04-20T18:08:59.859Z,49.00
2019-04-20T18:11:21.653Z,48.50
2019-04-20T18:13:57.658Z,48.80
2019-04-20T18:16:45.439Z,48.90
2019-04-20T18:19:01.939Z,49.40
2019-04-20T18:21:28.805Z,49.10
2019-04-20T18:24:00.443Z,49.30
2019-04-20T18:26:49.225Z,49.60
2019-04-20T18:29:21.348Z,49.30
2019-04-20T18:31:37.627Z,49.20
2019-04-20T18:34:14.126Z,49.60
2019-04-20T18:36:45.501Z,50.10
2019-04-20T18:39:16.551Z,49.70
2019-04-20T18:41:51.422Z,49.80
2019-04-20T18:44:21.090Z,49.90
2019-04-20T18:47:10.897Z,49.70
2019-04-20T18:49:35.958Z,49.50
2019-04-20T18:51:55.646Z,49.80
2019-04-20T18:54:37.005Z,50.10
2019-04-20T18:57:21.588Z,50.70
2019-04-20T18:59:52.106Z,50.70
2019-04-20T19:02:26.953Z,50.50
2019-04-20T19:04:51.401Z,50.50
2019-04-20T19:07:23.566Z,50.30
2019-04-20T19:10:03.878Z,50.20
2019-04-20T19:12:33.746Z,50.50
2019-04-20T19:15:20.756Z,50.50
2019-04-20T19:17:49.930Z,50.70
2019-04-20T19:20:11.901Z,51.40
2019-04-20T19:22:44.014Z,51.00
2019-04-20T19:25:20.964Z,51.10
2019-04-20T19:27:52.616Z,51.20
2019-04-20T19:30:31.391Z,51.30
2019-04-20T19:33:09.076Z,51.10
2019-04-20T19:35:33.685Z,51.40
2019-04-20T19:38:06.388Z,51.50
2019-04-20T19:40:43.235Z,51.40
2019-04-20T19:43:13.743Z,51.50
2019-04-20T19:46:05.620Z,51.40
2019-04-20T19:48:22.360Z,51.40
2019-04-20T19:50:59.251Z,51.40
2019-04-20T19:53:32.182Z,51.10
2019-04-20T19:55:58.371Z,51.60
2019-04-20T19:58:28.191Z,52.00
2019-04-20T20:00:51.635Z,52.30
2019-04-20T20:03:21.777Z,52.30
2019-04-20T20:05:55.762Z,52.40
2019-04-20T20:08:29.456Z,52.30
2019-04-20T20:11:00.882Z,51.80
2019-04-20T20:13:33.232Z,51.70
2019-04-20T20:16:09.668Z,51.80
2019-04-20T20:18:49.079Z,53.00
2019-04-20T20:21:21.849Z,53.50
2019-04-20T20:23:38.321Z,54.10
2019-04-20T20:26:18.865Z,54.00
2019-04-20T20:28:48.625Z,53.80
2019-04-20T20:31:23.395Z,53.50
2019-04-20T20:34:01.860Z,54.20
2019-04-20T20:36:23.029Z,54.20
2019-04-20T20:38:52.524Z,54.20
2019-04-20T20:41:28.254Z,54.60
2019-04-20T20:44:02.997Z,54.30
2019-04-20T20:46:34.756Z,54.70
2019-04-20T20:49:16.564Z,54.90
2019-04-20T20:51:48.750Z,55.30
2019-04-20T20:54:09.891Z,55.50
2019-04-20T20:56:42.254Z,55.10
2019-04-20T20:59:14.761Z,54.60
2019-04-20T21:01:48.115Z,54.80
2019-04-20T21:04:11.962Z,54.80
2019-04-20T21:06:42.712Z,54.90
2019-04-20T21:09:14.426Z,54.90
2019-04-20T21:11:46.242Z,54.80
2019-04-20T21:14:21.952Z,54.90
2019-04-20T21:17:00.412Z,55.60
2019-04-20T21:19:34.295Z,56.00
2019-04-20T21:21:59.995Z,56.30
2019-04-20T21:24:28.363Z,55.90
2019-04-20T21:27:01.606Z,56.20
2019-04-20T21:29:37.847Z,55.80
2019-04-20T21:32:08.692Z,55.30
2019-04-20T21:34:35.491Z,54.90
2019-04-20T21:37:12.196Z,54.70
2019-04-20T21:39:44.617Z,55.70
2019-04-20T21:42:15.801Z,56.40
2019-04-20T21:44:47.211Z,56.70
2019-04-20T21:47:22.414Z,56.50
2019-04-20T21:49:57.438Z,55.70
2019-04-20T21:52:26.636Z,55.10
2019-04-20T21:54:52.117Z,55.20
2019-04-20T21:57:24.090Z,56.50
2019-04-20T22:00:06.276Z,57.60
2019-04-20T22:02:32.775Z,58.20
2019-04-20T22:04:59.302Z,57.50
2019-04-20T22:07:30.464Z,58.00
2019-04-20T22:10:02.380Z,57.20
2019-04-20T22:12:44.991Z,57.00
2019-04-20T22:15:17.842Z,56.80
2019-04-20T22:17:42.696Z,56.90
2019-04-20T22:20:23.484Z,56.50
2019-04-20T22:22:59.473Z,56.30
2019-04-20T22:25:40.307Z,57.10
2019-04-20T22:27:50.410Z,56.80
